createdAt,value
2017-06-04T00:01:00.026Z,20.55
2017-06-04T00:02:08.995Z,20.48
2017-06-04T00:03:17.957Z,20.5
2017-06-04T00:04:26.920Z,20.52
2017-06-04T00:05:36.142Z,20.55
2017-06-04T00:06:45.419Z,20.48
2017-06-04T00:07:54.377Z,20.51
2017-06-04T00:09:03.337Z,20.48
2017-06-04T00:10:12.297Z,20.54
2017-06-04T00:11:21.504Z,20.5
2017-06-04T00:12:30.547Z,20.51
2017-06-04T00:13:39.506Z,20.43
2017-06-04T00:14:48.464Z,20.43
2017-06-04T00:15:57.451Z,20.43
2017-06-04T00:17:06.794Z,20.39
2017-06-04T00:18:15.754Z,20.54
2017-06-04T00:19:24.717Z,20.48
2017-06-04T00:20:33.680Z,20.47
2017-06-04T00:21:42.634Z,20.48
2017-06-04T00:22:51.898Z,20.47
2017-06-04T00:24:00.855Z,20.5
2017-06-04T00:25:09.821Z,20.47
2017-06-04T00:26:18.783Z,20.42
2017-06-04T00:27:28.064Z,20.47
2017-06-04T00:28:37.273Z,20.42
2017-06-04T00:29:46.232Z,20.5
2017-06-04T00:30:55.194Z,20.39
2017-06-04T00:32:04.249Z,20.42
2017-06-04T00:33:13.208Z,20.36
2017-06-04T00:34:22.420Z,20.43
2017-06-04T00:35:31.466Z,20.42
2017-06-04T00:36:40.762Z,20.32
2017-06-04T00:37:49.803Z,20.38
2017-06-04T00:38:58.786Z,20.29
2017-06-04T00:40:07.998Z,20.31
2017-06-04T00:41:16.959Z,20.29
2017-06-04T00:42:25.916Z,20.29
2017-06-04T00:43:34.873Z,20.33
2017-06-04T00:44:43.829Z,20.32
2017-06-04T00:45:53.042Z,20.32
2017-06-04T00:47:01.997Z,20.32
2017-06-04T00:48:10.954Z,20.31
2017-06-04T00:49:19.914Z,20.28
2017-06-04T00:50:28.875Z,20.21
2017-06-04T00:51:38.088Z,20.28
2017-06-04T00:52:47.051Z,20.31
2017-06-04T00:53:56.011Z,20.31
2017-06-04T00:55:04.974Z,20.24
2017-06-04T00:56:13.934Z,20.28
2017-06-04T00:57:23.148Z,20.23
2017-06-04T00:58:32.110Z,20.18
2017-06-04T00:59:41.160Z,20.18
2017-06-04T01:00:50.144Z,20.18
2017-06-04T01:01:59.107Z,20.16
2017-06-04T01:03:08.316Z,20.26
2017-06-04T01:04:17.279Z,20.23
2017-06-04T01:05:26.232Z,20.18
2017-06-04T01:06:35.193Z,20.24
2017-06-04T01:07:44.161Z,20.17
2017-06-04T01:08:53.371Z,20.16
2017-06-04T01:10:02.416Z,20.2
2017-06-04T01:11:11.388Z,20.18
2017-06-04T01:12:20.352Z,20.2
2017-06-04T01:13:29.311Z,20.18
2017-06-04T01:14:38.524Z,20.18
2017-06-04T01:15:47.480Z,20.18
2017-06-04T01:16:56.443Z,20.17
2017-06-04T01:18:05.397Z,20.21
2017-06-04T01:19:14.358Z,20.14
2017-06-04T01:20:23.573Z,20.17
2017-06-04T01:21:32.528Z,20.18
2017-06-04T01:22:41.492Z,20.2
2017-06-04T01:23:50.456Z,20.17
2017-06-04T01:24:59.414Z,20.13
2017-06-04T01:26:08.653Z,20.18
2017-06-04T01:27:17.612Z,20.16
2017-06-04T01:28:26.569Z,20.1
2017-06-04T01:29:35.526Z,20.05
2017-06-04T01:30:44.482Z,20.14
2017-06-04T01:31:53.690Z,20.03
2017-06-04T01:33:02.654Z,20.05
2017-06-04T01:34:11.610Z,20.01
2017-06-04T01:35:20.573Z,20.06
2017-06-04T01:36:29.535Z,20.1
2017-06-04T01:37:38.796Z,20.06
2017-06-04T01:38:47.760Z,20.06
2017-06-04T01:39:56.727Z,20.05
2017-06-04T01:41:05.685Z,20.06
2017-06-04T01:42:14.643Z,20.08
2017-06-04T01:43:23.852Z,20.1
2017-06-04T01:44:32.810Z,20.13
2017-06-04T01:45:41.769Z,20.08
2017-06-04T01:46:50.730Z,20.1
2017-06-04T01:47:59.690Z,20.1
2017-06-04T01:49:08.901Z,20.1
2017-06-04T01:50:17.857Z,20.08
2017-06-04T01:51:26.814Z,20.05
2017-06-04T01:52:35.778Z,20.13
2017-06-04T01:53:44.738Z,20.06
2017-06-04T01:54:53.944Z,20.06
2017-06-04T01:56:02.901Z,20.06
2017-06-04T01:57:11.859Z,20.1
2017-06-04T01:58:20.817Z,20.08
2017-06-04T01:59:29.788Z,20.06
2017-06-04T02:00:38.999Z,19.99
2017-06-04T02:01:47.963Z,20.11
2017-06-04T02:02:56.926Z,20.06
2017-06-04T02:04:05.886Z,20.06
2017-06-04T02:05:14.850Z,20.01
2017-06-04T02:06:24.059Z,20.05
2017-06-04T02:07:33.018Z,20.13
2017-06-04T02:08:41.988Z,20.01
2017-06-04T02:09:50.950Z,19.99
2017-06-04T02:10:59.905Z,20.11
2017-06-04T02:12:09.117Z,20.08
2017-06-04T02:13:18.083Z,20.05
2017-06-04T02:14:27.042Z,20.02
2017-06-04T02:15:35.998Z,20.06
2017-06-04T02:16:44.960Z,20.06
2017-06-04T02:17:54.252Z,20.05
2017-06-04T02:19:03.208Z,20.06
2017-06-04T02:20:12.169Z,20.05
2017-06-04T02:21:21.133Z,20.01
2017-06-04T02:22:30.101Z,20.08
2017-06-04T02:23:39.313Z,20.03
2017-06-04T02:24:48.279Z,19.99
2017-06-04T02:25:57.289Z,20.01
2017-06-04T02:27:06.249Z,19.96
2017-06-04T02:28:15.211Z,19.99
2017-06-04T02:29:24.511Z,20.01
2017-06-04T02:30:33.467Z,20.08
2017-06-04T02:31:42.428Z,20.02
2017-06-04T02:32:52.044Z,20.01
2017-06-04T02:34:01.006Z,20.01
2017-06-04T02:35:10.219Z,20.01
2017-06-04T02:36:19.178Z,20.02
2017-06-04T02:37:28.256Z,20.03
2017-06-04T02:38:37.217Z,20.05
2017-06-04T02:39:46.180Z,20.03
2017-06-04T02:40:55.392Z,20.1
2017-06-04T02:42:04.352Z,20.05
2017-06-04T02:43:13.319Z,20.01
2017-06-04T02:44:22.278Z,20.06
2017-06-04T02:45:31.236Z,20.06
2017-06-04T02:46:40.444Z,20.06
2017-06-04T02:47:49.402Z,19.99
2017-06-04T02:48:58.362Z,19.95
2017-06-04T02:50:07.411Z,19.99
2017-06-04T02:51:16.726Z,20.14
2017-06-04T02:52:25.942Z,19.98
2017-06-04T02:53:34.906Z,19.99
2017-06-04T02:54:43.867Z,20.03
2017-06-04T02:55:52.827Z,20.03
2017-06-04T02:57:01.795Z,20.01
2017-06-04T02:58:11.006Z,20.03
2017-06-04T02:59:19.962Z,20.08
2017-06-04T03:00:28.916Z,20.06
2017-06-04T03:01:40.939Z,20.03
2017-06-04T03:02:49.894Z,20.06
2017-06-04T03:03:59.101Z,20.05
2017-06-04T03:05:08.066Z,20.03
2017-06-04T03:06:17.035Z,20.06
2017-06-04T03:07:25.997Z,19.99
2017-06-04T03:08:34.957Z,19.98
2017-06-04T03:09:44.251Z,20.05
2017-06-04T03:10:53.212Z,20.11
2017-06-04T03:12:02.168Z,20.03
2017-06-04T03:13:11.131Z,20.05
2017-06-04T03:14:20.205Z,20.01
2017-06-04T03:15:29.475Z,20.01
2017-06-04T03:16:38.436Z,20.03
2017-06-04T03:17:47.398Z,20.01
2017-06-04T03:18:56.357Z,19.98
2017-06-04T03:20:05.315Z,19.99
2017-06-04T03:21:14.530Z,20.03
2017-06-04T03:22:23.493Z,20.01
2017-06-04T03:23:32.452Z,20.03
2017-06-04T03:24:41.410Z,19.98
2017-06-04T03:25:50.372Z,20.05
2017-06-04T03:26:59.632Z,20.05
2017-06-04T03:28:08.593Z,20.08
2017-06-04T03:29:17.552Z,20.01
2017-06-04T03:30:26.514Z,20.05
2017-06-04T03:31:35.490Z,20.01
2017-06-04T03:32:45.024Z,20.01
2017-06-04T03:33:54.154Z,20.06
2017-06-04T03:35:03.116Z,19.96
2017-06-04T03:36:12.078Z,20.05
2017-06-04T03:37:21.035Z,19.98
2017-06-04T03:38:30.302Z,19.98
2017-06-04T03:39:39.263Z,20.1
2017-06-04T03:40:48.220Z,20.01
2017-06-04T03:41:57.187Z,20.03
2017-06-04T03:43:06.145Z,20.02
2017-06-04T03:44:15.358Z,20.03
2017-06-04T03:45:24.319Z,20.05
2017-06-04T03:46:33.285Z,19.99
2017-06-04T03:47:42.239Z,20.03
2017-06-04T03:48:51.200Z,20.08
2017-06-04T03:50:00.408Z,20.06
2017-06-04T03:51:09.369Z,20.01
2017-06-04T03:52:18.334Z,20.11
2017-06-04T03:53:27.288Z,20.13
2017-06-04T03:54:36.248Z,20.06
2017-06-04T03:55:45.462Z,20.05
2017-06-04T03:56:54.421Z,20.06
2017-06-04T03:58:03.387Z,20.06
2017-06-04T03:59:15.704Z,20.05
2017-06-04T04:00:24.658Z,20.06
2017-06-04T04:01:33.917Z,20.05
2017-06-04T04:02:43.219Z,20.05
2017-06-04T04:03:52.504Z,20.06
2017-06-04T04:05:01.551Z,20.1
2017-06-04T04:06:10.513Z,20.06
2017-06-04T04:07:19.728Z,20.1
2017-06-04T04:08:28.689Z,20.11
2017-06-04T04:09:37.651Z,20.16
2017-06-04T04:10:46.611Z,20.1
2017-06-04T04:11:55.569Z,20.03
2017-06-04T04:13:04.778Z,20.1
2017-06-04T04:14:13.743Z,20.11
2017-06-04T04:15:22.707Z,20.13
2017-06-04T04:16:31.673Z,20.03
2017-06-04T04:17:40.968Z,20.08
2017-06-04T04:18:50.173Z,20.18
2017-06-04T04:19:59.135Z,20.08
2017-06-04T04:21:08.186Z,20.14
2017-06-04T04:22:17.147Z,20.1
2017-06-04T04:23:26.108Z,20.08
2017-06-04T04:24:35.383Z,20.11
2017-06-04T04:25:44.343Z,20.1
2017-06-04T04:26:53.310Z,20.14
2017-06-04T04:28:02.269Z,20.11
2017-06-04T04:29:11.226Z,20.14
2017-06-04T04:30:20.438Z,20.17
2017-06-04T04:31:29.397Z,20.14
2017-06-04T04:32:38.356Z,20.16
2017-06-04T04:33:47.311Z,20.16
2017-06-04T04:34:56.269Z,20.13
2017-06-04T04:36:05.482Z,20.17
2017-06-04T04:37:14.442Z,20.16
2017-06-04T04:38:23.398Z,20.16
2017-06-04T04:39:32.356Z,20.11
2017-06-04T04:40:41.314Z,20.17
2017-06-04T04:41:50.557Z,20.13
2017-06-04T04:42:59.519Z,20.17
2017-06-04T04:44:08.481Z,20.13
2017-06-04T04:45:17.527Z,20.18
2017-06-04T04:46:26.493Z,20.17
2017-06-04T04:47:35.703Z,20.17
2017-06-04T04:48:44.660Z,20.2
2017-06-04T04:49:53.617Z,20.17
2017-06-04T04:51:02.572Z,20.18
2017-06-04T04:52:11.617Z,20.21
2017-06-04T04:53:20.910Z,20.17
2017-06-04T04:54:29.876Z,20.14
2017-06-04T04:55:38.836Z,20.21
2017-06-04T04:56:47.796Z,20.17
2017-06-04T04:57:56.753Z,20.18
2017-06-04T04:59:05.962Z,20.24
2017-06-04T05:00:14.927Z,20.24
2017-06-04T05:01:23.884Z,20.2
2017-06-04T05:02:32.844Z,20.26
2017-06-04T05:03:41.800Z,20.21
2017-06-04T05:04:51.009Z,20.33
2017-06-04T05:05:59.965Z,20.29
2017-06-04T05:07:08.926Z,20.26
2017-06-04T05:08:17.888Z,20.28
2017-06-04T05:09:26.852Z,20.36
2017-06-04T05:10:36.059Z,20.24
2017-06-04T05:11:45.042Z,20.26
2017-06-04T05:12:53.999Z,20.33
2017-06-04T05:14:02.977Z,20.26
2017-06-04T05:15:11.935Z,20.31
2017-06-04T05:16:21.200Z,20.29
2017-06-04T05:17:30.492Z,20.31
2017-06-04T05:18:39.456Z,20.31
2017-06-04T05:19:48.418Z,20.26
2017-06-04T05:20:57.383Z,20.36
2017-06-04T05:22:06.651Z,20.33
2017-06-04T05:23:15.610Z,20.32
2017-06-04T05:24:24.571Z,20.17
2017-06-04T05:25:33.533Z,20.18
2017-06-04T05:26:42.493Z,20.18
2017-06-04T05:27:51.706Z,20.17
2017-06-04T05:29:00.752Z,20.21
2017-06-04T05:30:09.712Z,20.16
2017-06-04T05:31:18.677Z,20.2
2017-06-04T05:32:27.639Z,20.18
2017-06-04T05:33:36.900Z,20.11
2017-06-04T05:34:45.861Z,20.14
2017-06-04T05:35:54.817Z,20.13
2017-06-04T05:37:03.782Z,20.14
2017-06-04T05:38:12.743Z,20.17
2017-06-04T05:39:21.950Z,20.2
2017-06-04T05:40:30.941Z,20.11
2017-06-04T05:41:39.902Z,20.11
2017-06-04T05:42:48.864Z,20.05
2017-06-04T05:43:57.824Z,20.06
2017-06-04T05:45:07.034Z,20.03
2017-06-04T05:46:15.992Z,20.02
2017-06-04T05:47:24.953Z,20.02
2017-06-04T05:48:33.923Z,20.03
2017-06-04T05:49:42.882Z,20.11
2017-06-04T05:50:52.092Z,20.02
2017-06-04T05:52:01.053Z,20.02
2017-06-04T05:53:10.015Z,20.11
2017-06-04T05:54:18.977Z,19.98
2017-06-04T05:55:28.037Z,19.95
2017-06-04T05:56:37.253Z,19.99
2017-06-04T05:57:46.213Z,19.86
2017-06-04T05:58:55.177Z,19.98
2017-06-04T06:00:04.152Z,19.87
2017-06-04T06:01:13.204Z,19.96
2017-06-04T06:02:22.413Z,19.91
2017-06-04T06:03:31.367Z,19.91
2017-06-04T06:04:40.323Z,19.78
2017-06-04T06:05:49.280Z,19.77
2017-06-04T06:06:58.241Z,19.88
2017-06-04T06:08:07.450Z,19.81
2017-06-04T06:09:16.410Z,19.87
2017-06-04T06:10:25.368Z,19.91
2017-06-04T06:11:34.345Z,19.86
2017-06-04T06:12:43.304Z,19.88
2017-06-04T06:13:52.513Z,19.91
2017-06-04T06:15:01.468Z,19.91
2017-06-04T06:16:10.426Z,19.92
2017-06-04T06:17:19.388Z,19.87
2017-06-04T06:18:28.346Z,19.88
2017-06-04T06:19:37.562Z,19.88
2017-06-04T06:20:46.520Z,19.91
2017-06-04T06:21:55.480Z,19.96
2017-06-04T06:23:04.440Z,19.87
2017-06-04T06:24:13.400Z,19.74
2017-06-04T06:25:22.607Z,19.77
2017-06-04T06:26:31.571Z,19.66
2017-06-04T06:27:40.535Z,19.62
2017-06-04T06:28:49.490Z,19.68
2017-06-04T06:29:58.456Z,19.65
2017-06-04T06:31:07.760Z,19.54
2017-06-04T06:32:16.719Z,19.55
2017-06-04T06:33:25.673Z,19.54
2017-06-04T06:34:34.633Z,19.47
2017-06-04T06:35:43.595Z,19.54
2017-06-04T06:36:52.802Z,19.5
2017-06-04T06:38:01.759Z,19.4
2017-06-04T06:39:10.717Z,19.47
2017-06-04T06:40:19.677Z,19.31
2017-06-04T06:41:28.638Z,19.29
2017-06-04T06:42:37.859Z,19.25
2017-06-04T06:43:46.819Z,19.19
2017-06-04T06:44:55.774Z,19.23
2017-06-04T06:46:04.732Z,19.16
2017-06-04T06:47:13.695Z,19.18
2017-06-04T06:48:22.910Z,19.11
2017-06-04T06:49:31.873Z,19.14
2017-06-04T06:50:40.837Z,19.18
2017-06-04T06:51:49.795Z,19.1
2017-06-04T06:52:58.754Z,19.14
2017-06-04T06:54:07.962Z,19.07
2017-06-04T06:55:16.922Z,19.18
2017-06-04T06:56:25.879Z,19.1
2017-06-04T06:57:34.838Z,19.08
2017-06-04T06:58:44.121Z,19.04
2017-06-04T06:59:53.335Z,18.95
2017-06-04T07:01:02.286Z,18.98
2017-06-04T07:02:11.244Z,18.88
2017-06-04T07:03:20.202Z,18.94
2017-06-04T07:04:29.159Z,18.91
2017-06-04T07:05:38.708Z,18.94
2017-06-04T07:06:47.663Z,18.91
2017-06-04T07:07:56.713Z,18.91
2017-06-04T07:09:05.671Z,18.82
2017-06-04T07:10:14.629Z,18.82
2017-06-04T07:11:23.832Z,18.84
2017-06-04T07:12:32.886Z,18.88
2017-06-04T07:13:41.870Z,18.98
2017-06-04T07:14:50.833Z,18.94
2017-06-04T07:15:59.793Z,18.78
2017-06-04T07:17:08.999Z,18.8
2017-06-04T07:18:17.958Z,18.76
2017-06-04T07:19:26.919Z,18.81
2017-06-04T07:20:35.878Z,18.84
2017-06-04T07:21:44.837Z,18.88
2017-06-04T07:22:54.127Z,18.8
2017-06-04T07:24:03.088Z,18.81
2017-06-04T07:25:12.047Z,18.84
2017-06-04T07:26:21.010Z,18.73
2017-06-04T07:27:29.972Z,18.76
2017-06-04T07:28:39.227Z,18.65
2017-06-04T07:29:48.187Z,18.69
2017-06-04T07:30:57.159Z,18.55
2017-06-04T07:32:06.112Z,18.55
2017-06-04T07:33:15.071Z,18.55
2017-06-04T07:34:24.277Z,18.6
2017-06-04T07:35:33.234Z,18.63
2017-06-04T07:36:42.205Z,18.6
2017-06-04T07:37:51.165Z,18.39
2017-06-04T07:39:00.125Z,18.47
2017-06-04T07:40:09.387Z,18.29
2017-06-04T07:41:18.345Z,18.29
2017-06-04T07:42:27.303Z,18.14
2017-06-04T07:43:36.272Z,18.1
2017-06-04T07:44:45.548Z,18.1
2017-06-04T07:45:54.758Z,18
2017-06-04T07:47:03.729Z,18
2017-06-04T07:48:12.774Z,17.99
2017-06-04T07:49:21.732Z,17.81
2017-06-04T07:50:30.684Z,17.78
2017-06-04T07:51:39.910Z,17.74
2017-06-04T07:52:48.951Z,17.64
2017-06-04T07:53:57.996Z,17.64
2017-06-04T07:55:06.955Z,17.63
2017-06-04T07:56:15.912Z,17.63
2017-06-04T07:57:25.175Z,17.58
2017-06-04T07:58:34.137Z,17.48
2017-06-04T07:59:43.110Z,17.52
2017-06-04T08:00:52.066Z,17.49
2017-06-04T08:02:01.024Z,17.46
2017-06-04T08:03:10.231Z,17.48
2017-06-04T08:04:19.185Z,17.46
2017-06-04T08:05:28.143Z,17.49
2017-06-04T08:06:37.106Z,17.48
2017-06-04T08:07:46.069Z,17.54
2017-06-04T08:08:55.276Z,17.51
2017-06-04T08:10:04.232Z,17.52
2017-06-04T08:11:13.185Z,17.46
2017-06-04T08:12:22.142Z,17.51
2017-06-04T08:13:31.186Z,17.56
2017-06-04T08:14:40.728Z,17.52
2017-06-04T08:15:49.687Z,17.52
2017-06-04T08:16:58.650Z,17.58
2017-06-04T08:18:07.603Z,17.62
2017-06-04T08:19:16.555Z,17.66
2017-06-04T08:20:25.759Z,17.64
2017-06-04T08:21:34.717Z,17.78
2017-06-04T08:22:43.677Z,17.7
2017-06-04T08:23:52.635Z,17.74
2017-06-04T08:25:01.599Z,17.71
2017-06-04T08:26:10.896Z,17.63
2017-06-04T08:27:19.872Z,17.63
2017-06-04T08:28:28.830Z,17.55
2017-06-04T08:29:37.786Z,17.51
2017-06-04T08:30:46.749Z,17.59
2017-06-04T08:31:56.007Z,17.58
2017-06-04T08:33:04.967Z,17.51
2017-06-04T08:34:13.920Z,17.52
2017-06-04T08:35:22.876Z,17.49
2017-06-04T08:36:31.836Z,17.49
2017-06-04T08:37:41.042Z,17.49
2017-06-04T08:38:50.001Z,17.37
2017-06-04T08:39:58.950Z,17.41
2017-06-04T08:41:07.911Z,17.48
2017-06-04T08:42:16.865Z,17.38
2017-06-04T08:43:26.071Z,17.31
2017-06-04T08:44:35.025Z,17.33
2017-06-04T08:45:43.979Z,17.34
2017-06-04T08:46:52.938Z,17.33
2017-06-04T08:48:01.905Z,17.34
2017-06-04T08:49:11.118Z,17.41
2017-06-04T08:50:20.069Z,17.46
2017-06-04T08:51:29.020Z,17.44
2017-06-04T08:52:37.980Z,17.46
2017-06-04T08:53:46.937Z,17.46
2017-06-04T08:54:56.148Z,17.41
2017-06-04T08:56:05.099Z,17.44
2017-06-04T08:57:14.146Z,17.43
2017-06-04T08:58:23.284Z,17.33
2017-06-04T08:59:32.243Z,17.37
2017-06-04T09:00:41.780Z,17.28
2017-06-04T09:01:50.734Z,17.31
2017-06-04T09:02:59.692Z,17.33
2017-06-04T09:04:08.650Z,17.28
2017-06-04T09:05:17.610Z,17.26
2017-06-04T09:06:26.820Z,17.28
2017-06-04T09:07:35.790Z,17.36
2017-06-04T09:08:44.754Z,17.18
2017-06-04T09:09:53.712Z,17.22
2017-06-04T09:11:02.670Z,17.26
2017-06-04T09:12:11.874Z,17.16
2017-06-04T09:13:20.836Z,17.08
2017-06-04T09:14:29.795Z,17.16
2017-06-04T09:15:38.754Z,17.16
2017-06-04T09:16:47.711Z,17.16
2017-06-04T09:17:56.918Z,17.06
2017-06-04T09:19:05.882Z,17.07
2017-06-04T09:20:15.169Z,17.07
2017-06-04T09:21:24.130Z,17.15
2017-06-04T09:22:33.089Z,17.12
2017-06-04T09:23:42.319Z,17.12
2017-06-04T09:24:51.281Z,17.11
2017-06-04T09:26:00.239Z,17.11
2017-06-04T09:27:09.198Z,17.07
2017-06-04T09:28:18.156Z,17.11
2017-06-04T09:29:27.361Z,17.07
2017-06-04T09:30:36.326Z,16.94
2017-06-04T09:31:45.284Z,16.94
2017-06-04T09:32:54.268Z,17
2017-06-04T09:34:03.232Z,17.01
2017-06-04T09:35:12.438Z,16.93
2017-06-04T09:36:21.401Z,16.98
2017-06-04T09:37:30.356Z,16.91
2017-06-04T09:38:39.310Z,17
2017-06-04T09:39:48.269Z,16.96
2017-06-04T09:40:57.481Z,16.94
2017-06-04T09:42:06.450Z,16.93
2017-06-04T09:43:15.405Z,16.96
2017-06-04T09:44:24.362Z,16.96
2017-06-04T09:45:33.321Z,17
2017-06-04T09:46:42.529Z,16.94
2017-06-04T09:47:51.484Z,16.93
2017-06-04T09:49:00.466Z,17
2017-06-04T09:50:09.424Z,17.01
2017-06-04T09:51:18.469Z,16.86
2017-06-04T09:52:27.679Z,16.91
2017-06-04T09:53:36.635Z,16.96
2017-06-04T09:54:45.585Z,16.89
2017-06-04T09:55:54.569Z,16.82
2017-06-04T09:57:03.527Z,16.86
2017-06-04T09:58:12.743Z,16.89
2017-06-04T09:59:21.700Z,16.83
2017-06-04T10:00:30.652Z,16.85
2017-06-04T10:01:39.609Z,16.86
2017-06-04T10:02:48.565Z,16.94
2017-06-04T10:03:57.765Z,16.86
2017-06-04T10:05:06.726Z,16.91
2017-06-04T10:06:15.682Z,16.88
2017-06-04T10:07:24.642Z,16.89
2017-06-04T10:08:33.601Z,16.88
2017-06-04T10:09:42.803Z,16.86
2017-06-04T10:10:51.764Z,16.88
2017-06-04T10:12:00.724Z,16.96
2017-06-04T10:13:09.683Z,16.93
2017-06-04T10:14:18.636Z,16.85
2017-06-04T10:15:27.845Z,16.86
2017-06-04T10:16:36.799Z,16.94
2017-06-04T10:17:45.753Z,17
2017-06-04T10:18:54.733Z,17.11
2017-06-04T10:20:03.691Z,17.11
2017-06-04T10:21:12.898Z,17.11
2017-06-04T10:22:21.853Z,17.06
2017-06-04T10:23:30.816Z,17.16
2017-06-04T10:24:39.772Z,17.08
2017-06-04T10:25:48.736Z,17.06
2017-06-04T10:26:57.988Z,17.15
2017-06-04T10:28:06.973Z,17.14
2017-06-04T10:29:15.928Z,17.18
2017-06-04T10:30:24.883Z,17.14
2017-06-04T10:31:33.836Z,17.12
2017-06-04T10:32:43.046Z,17.11
2017-06-04T10:33:52.017Z,17.19
2017-06-04T10:35:00.973Z,17.21
2017-06-04T10:36:10.257Z,17.14
2017-06-04T10:37:19.214Z,17.14
2017-06-04T10:38:28.428Z,17.25
2017-06-04T10:39:37.389Z,17.18
2017-06-04T10:40:46.338Z,17.19
2017-06-04T10:41:55.301Z,17.14
2017-06-04T10:43:04.256Z,17.16
2017-06-04T10:44:13.465Z,17.18
2017-06-04T10:45:22.424Z,17.18
2017-06-04T10:46:31.383Z,17.22
2017-06-04T10:47:40.339Z,17.19
2017-06-04T10:48:49.297Z,17.23
2017-06-04T10:49:58.507Z,17.19
2017-06-04T10:51:07.547Z,17.21
2017-06-04T10:52:16.508Z,17.18
2017-06-04T10:53:25.470Z,17.14
2017-06-04T10:54:34.432Z,17.21
2017-06-04T10:55:43.688Z,17.26
2017-06-04T10:56:52.644Z,17.18
2017-06-04T10:58:01.602Z,17.34
2017-06-04T10:59:10.561Z,17.25
2017-06-04T11:00:19.517Z,17.21
2017-06-04T11:01:28.721Z,17.33
2017-06-04T11:02:37.676Z,17.23
2017-06-04T11:03:46.634Z,17.22
2017-06-04T11:04:55.592Z,17.25
2017-06-04T11:06:04.551Z,17.22
2017-06-04T11:07:13.764Z,17.26
2017-06-04T11:08:22.721Z,17.31
2017-06-04T11:09:31.677Z,17.34
2017-06-04T11:10:40.968Z,17.43
2017-06-04T11:11:49.935Z,17.4
2017-06-04T11:12:59.142Z,17.48
2017-06-04T11:14:08.095Z,17.41
2017-06-04T11:15:17.050Z,17.38
2017-06-04T11:16:26.003Z,17.4
2017-06-04T11:17:34.959Z,17.4
2017-06-04T11:18:44.167Z,17.51
2017-06-04T11:19:53.122Z,17.52
2017-06-04T11:21:02.404Z,17.54
2017-06-04T11:22:11.363Z,17.48
2017-06-04T11:23:20.404Z,17.51
2017-06-04T11:24:29.616Z,17.51
2017-06-04T11:25:38.569Z,17.52
2017-06-04T11:26:47.521Z,17.52
2017-06-04T11:27:56.483Z,17.48
2017-06-04T11:29:05.438Z,17.49
2017-06-04T11:30:14.644Z,17.54
2017-06-04T11:31:23.599Z,17.46
2017-06-04T11:32:32.566Z,17.62
2017-06-04T11:33:41.529Z,17.51
2017-06-04T11:34:50.484Z,17.46
2017-06-04T11:35:59.694Z,17.52
2017-06-04T11:37:08.650Z,17.52
2017-06-04T11:38:17.605Z,17.48
2017-06-04T11:39:26.564Z,17.49
2017-06-04T11:40:35.518Z,17.51
2017-06-04T11:41:44.726Z,17.46
2017-06-04T11:42:53.679Z,17.54
2017-06-04T11:44:02.730Z,17.48
2017-06-04T11:45:12.037Z,17.41
2017-06-04T11:46:21.000Z,17.41
2017-06-04T11:47:30.207Z,17.37
2017-06-04T11:48:39.166Z,17.43
2017-06-04T11:49:48.123Z,17.41
2017-06-04T11:50:57.492Z,17.41
2017-06-04T11:52:06.450Z,17.44
2017-06-04T11:53:15.704Z,17.26
2017-06-04T11:54:24.663Z,17.25
2017-06-04T11:55:33.617Z,17.31
2017-06-04T11:56:42.570Z,17.25
2017-06-04T11:57:51.529Z,17.31
2017-06-04T11:59:00.733Z,17.19
2017-06-04T12:00:09.691Z,17.25
2017-06-04T12:01:18.684Z,17.18
2017-06-04T12:02:27.650Z,17.15
2017-06-04T12:03:36.608Z,17.23
2017-06-04T12:04:45.814Z,17.07
2017-06-04T12:05:54.773Z,17.08
2017-06-04T12:07:03.735Z,17.18
2017-06-04T12:08:12.691Z,17.12
2017-06-04T12:09:21.647Z,17.15
2017-06-04T12:10:30.941Z,17.15
2017-06-04T12:11:39.902Z,17.15
2017-06-04T12:12:48.857Z,17.16
2017-06-04T12:13:57.809Z,17.12
2017-06-04T12:15:06.770Z,17.07
2017-06-04T12:16:15.989Z,17.07
2017-06-04T12:17:24.951Z,17.11
2017-06-04T12:18:33.910Z,17.04
2017-06-04T12:19:42.956Z,17.11
2017-06-04T12:20:51.919Z,17.11
2017-06-04T12:22:01.180Z,17.07
2017-06-04T12:23:10.134Z,17.06
2017-06-04T12:24:19.088Z,17.03
2017-06-04T12:25:28.058Z,17.04
2017-06-04T12:26:37.019Z,17.08
2017-06-04T12:27:46.230Z,17.18
2017-06-04T12:28:55.188Z,17.14
2017-06-04T12:30:04.144Z,17.11
2017-06-04T12:31:13.100Z,17.14
2017-06-04T12:32:22.055Z,17.15
2017-06-04T12:33:31.257Z,17.19
2017-06-04T12:34:40.209Z,17.19
2017-06-04T12:35:49.173Z,17.12
2017-06-04T12:36:58.143Z,17.12
2017-06-04T12:38:07.458Z,17.18
2017-06-04T12:39:16.670Z,17.16
2017-06-04T12:40:25.626Z,17.14
2017-06-04T12:41:34.580Z,17.07
2017-06-04T12:42:43.542Z,16.94
2017-06-04T12:43:52.498Z,17.03
2017-06-04T12:45:01.705Z,16.86
2017-06-04T12:46:10.983Z,16.88
2017-06-04T12:47:19.939Z,16.88
2017-06-04T12:48:28.893Z,16.88
2017-06-04T12:49:37.850Z,16.93
2017-06-04T12:50:47.056Z,16.91
2017-06-04T12:51:56.019Z,16.86
2017-06-04T12:53:05.319Z,16.85
2017-06-04T12:54:14.272Z,16.85
2017-06-04T12:55:23.226Z,16.89
2017-06-04T12:56:32.428Z,16.96
2017-06-04T12:57:41.381Z,16.88
2017-06-04T12:58:50.332Z,16.88
2017-06-04T12:59:59.287Z,16.89
2017-06-04T13:01:08.568Z,16.89
2017-06-04T13:02:17.777Z,16.96
2017-06-04T13:03:26.740Z,16.98
2017-06-04T13:04:35.703Z,16.96
2017-06-04T13:05:44.657Z,16.91
2017-06-04T13:06:53.611Z,17.04
2017-06-04T13:08:02.863Z,17.14
2017-06-04T13:09:11.817Z,17.14
2017-06-04T13:10:20.782Z,17.14
2017-06-04T13:11:29.741Z,17.16
2017-06-04T13:12:38.700Z,17.22
2017-06-04T13:13:47.909Z,17.21
2017-06-04T13:14:57.187Z,17.33
2017-06-04T13:16:06.145Z,17.34
2017-06-04T13:17:15.101Z,17.31
2017-06-04T13:18:24.144Z,17.22
2017-06-04T13:19:33.352Z,17.21
2017-06-04T13:20:42.313Z,17.21
2017-06-04T13:21:51.268Z,17.19
2017-06-04T13:23:00.248Z,17.18
2017-06-04T13:24:09.203Z,17.22
2017-06-04T13:25:18.405Z,17.31
2017-06-04T13:26:27.370Z,17.28
2017-06-04T13:27:36.332Z,17.33
2017-06-04T13:28:45.285Z,17.38
2017-06-04T13:29:54.240Z,17.43
2017-06-04T13:31:03.449Z,17.26
2017-06-04T13:32:12.405Z,17.31
2017-06-04T13:33:21.448Z,17.26
2017-06-04T13:34:30.404Z,17.3
2017-06-04T13:35:39.364Z,17.21
2017-06-04T13:36:48.713Z,17.22
2017-06-04T13:37:57.667Z,17.22
2017-06-04T13:39:06.623Z,17.12
2017-06-04T13:40:15.586Z,17.11
2017-06-04T13:41:24.545Z,17.16
2017-06-04T13:42:33.754Z,17.07
2017-06-04T13:43:42.708Z,17.14
2017-06-04T13:44:51.662Z,17.14
2017-06-04T13:46:00.796Z,17.21
2017-06-04T13:47:09.753Z,17.23
2017-06-04T13:48:18.961Z,17.19
2017-06-04T13:49:27.916Z,17.22
2017-06-04T13:50:36.874Z,17.26
2017-06-04T13:51:45.830Z,17.25
2017-06-04T13:52:54.790Z,17.33
2017-06-04T13:54:04.007Z,17.26
2017-06-04T13:55:12.959Z,17.28
2017-06-04T13:56:21.913Z,17.33
2017-06-04T13:57:30.871Z,17.26
2017-06-04T13:58:39.828Z,17.3
2017-06-04T13:59:49.032Z,17.23
2017-06-04T14:00:57.992Z,17.18
2017-06-04T14:02:06.954Z,17.21
2017-06-04T14:03:16.005Z,17.26
2017-06-04T14:04:24.957Z,17.14
2017-06-04T14:05:34.257Z,17.08
2017-06-04T14:06:43.251Z,17.04
2017-06-04T14:07:52.213Z,17
2017-06-04T14:09:01.494Z,16.88
2017-06-04T14:10:10.455Z,16.85
2017-06-04T14:11:19.666Z,16.93
2017-06-04T14:12:28.626Z,16.85
2017-06-04T14:13:37.610Z,16.86
2017-06-04T14:14:46.568Z,16.98
2017-06-04T14:15:55.611Z,16.97
2017-06-04T14:17:04.817Z,17.01
2017-06-04T14:18:13.766Z,17.11
2017-06-04T14:19:22.721Z,17.07
2017-06-04T14:20:31.677Z,17.12
2017-06-04T14:21:40.638Z,17.14
2017-06-04T14:22:49.842Z,17.07
2017-06-04T14:23:58.797Z,17.01
2017-06-04T14:25:07.761Z,16.93
2017-06-04T14:26:16.729Z,17.01
2017-06-04T14:27:25.686Z,17.01
2017-06-04T14:28:34.885Z,17.06
2017-06-04T14:29:43.844Z,16.93
2017-06-04T14:30:52.799Z,16.94
2017-06-04T14:32:01.757Z,16.91
2017-06-04T14:33:10.715Z,16.91
2017-06-04T14:34:20.249Z,16.97
2017-06-04T14:35:29.213Z,16.93
2017-06-04T14:36:38.169Z,16.88
2017-06-04T14:37:47.131Z,16.86
2017-06-04T14:38:56.084Z,16.89
2017-06-04T14:40:05.340Z,16.96
2017-06-04T14:41:14.298Z,16.83
2017-06-04T14:42:23.256Z,16.89
2017-06-04T14:43:32.210Z,16.94
2017-06-04T14:44:41.171Z,16.98
2017-06-04T14:45:50.379Z,16.97
2017-06-04T14:46:59.335Z,17
2017-06-04T14:48:08.294Z,16.96
2017-06-04T14:49:17.252Z,16.96
2017-06-04T14:50:26.210Z,16.96
2017-06-04T14:51:35.417Z,16.96